Aviation Digital Data Service (ADDS)

Output produced by METARs form (1853 UTC 26 March 2017)
found at http://aviationweather.gov/adds/metars/
 
KPHX 261720Z 2618/2718 12005KT P6SM SCT250 
     FM262000 26008KT P6SM SCT250 
     FM270400 VRB04KT P6SM FEW150 SCT250 
     FM270700 10007KT P6SM FEW150 SCT250